Time;durP1;ratioP1;P1;durP2;ratioP2;P2;SDS_P1;SDS_P2;PMS_P1;PMS_P2;Temp;Humidity;BMP_temperature;BMP_pressure;BME280_temperature;BME280_humidity;BME280_pressure;Samples;Min_cycle;Max_cycle;Signal;HPM_P1;HPM_P2
2021/04/12 00:01:36;;;;;;;6.93;2.50;;;2.70;99.90;;;;;;5134588;27;20566;-63
2021/04/12 00:04:09;;;;;;;9.70;2.67;;;2.70;99.90;;;;;;5134396;27;20473;-63
2021/04/12 00:06:42;;;;;;;6.40;2.63;;;2.60;99.90;;;;;;5132143;27;20449;-63
2021/04/12 00:09:13;;;;;;;6.77;2.47;;;2.60;99.90;;;;;;5133420;27;20786;-63
2021/04/12 00:11:45;;;;;;;5.93;2.37;;;2.60;99.90;;;;;;5134006;27;20468;-63
2021/04/12 00:14:16;;;;;;;6.47;2.50;;;2.60;99.90;;;;;;5126785;27;20455;-63
2021/04/12 00:16:46;;;;;;;7.73;2.80;;;2.50;99.90;;;;;;5130035;27;21016;-63
2021/04/12 00:19:21;;;;;;;8.97;3.30;;;2.50;99.90;;;;;;5133729;27;20554;-64
2021/04/12 00:21:52;;;;;;;7.75;3.00;;;2.50;99.90;;;;;;5120644;27;20867;-63
2021/04/12 00:24:26;;;;;;;6.50;2.40;;;2.40;99.90;;;;;;5126074;27;20289;-63
2021/04/12 00:26:59;;;;;;;7.95;2.53;;;2.40;99.90;;;;;;5133168;27;20498;-63
2021/04/12 00:29:33;;;;;;;8.50;3.13;;;2.40;99.90;;;;;;5127074;27;20200;-63
2021/04/12 00:32:05;;;;;;;5.70;2.23;;;2.40;99.90;;;;;;5131341;27;20898;-63
2021/04/12 00:34:40;;;;;;;9.25;2.92;;;2.40;99.90;;;;;;5133879;27;20597;-63
2021/04/12 00:37:12;;;;;;;6.53;2.60;;;2.40;99.90;;;;;;5133514;27;20201;-63
2021/04/12 00:39:42;;;;;;;7.60;2.90;;;2.40;99.90;;;;;;5133392;27;20872;-63
2021/04/12 00:42:46;;;;;;;10.03;3.40;;;2.40;99.90;;;;;;5133556;27;20555;-63
2021/04/12 00:45:50;;;;;;;6.88;2.60;;;2.40;99.90;;;;;;5117311;27;20510;-64
2021/04/12 00:48:36;;;;;;;8.50;3.42;;;2.40;99.90;;;;;;5120808;27;20312;-63
2021/04/12 00:51:22;;;;;;;8.10;3.35;;;2.30;99.90;;;;;;5133668;27;20224;-64
2021/04/12 00:54:01;;;;;;;7.95;2.88;;;2.30;99.90;;;;;;5133673;27;20293;-64
2021/04/12 00:56:32;;;;;;;7.43;2.60;;;2.30;99.90;;;;;;5133206;27;20370;-64
2021/04/12 00:59:04;;;;;;;8.23;2.80;;;2.30;99.90;;;;;;5129038;27;20506;-64
2021/04/12 01:01:43;;;;;;;6.73;2.60;;;2.30;99.90;;;;;;5124697;27;20202;-63
2021/04/12 01:04:35;;;;;;;8.02;3.40;;;2.30;99.90;;;;;;5127804;27;20456;-64
2021/04/12 01:07:26;;;;;;;8.80;2.27;;;2.30;99.90;;;;;;5129599;27;20193;-63
2021/04/12 01:10:24;;;;;;;6.97;3.23;;;2.30;99.90;;;;;;5127551;27;20534;-64
2021/04/12 01:13:38;;;;;;;9.27;3.28;;;2.30;99.90;;;;;;5131807;27;20447;-63
2021/04/12 01:16:30;;;;;;;6.43;3.50;;;2.30;99.90;;;;;;5097345;27;20539;-63
2021/04/12 01:19:35;;;;;;;6.70;3.03;;;2.30;99.90;;;;;;5133331;27;20194;-64
2021/04/12 01:22:57;;;;;;;11.47;3.70;;;2.30;99.90;;;;;;5130946;27;20577;-63
2021/04/12 01:26:18;;;;;;;6.37;3.33;;;2.20;99.90;;;;;;5121755;27;20446;-63
2021/04/12 01:29:29;;;;;;;7.77;3.67;;;2.20;99.90;;;;;;5048974;28;20566;-63
2021/04/12 01:32:28;;;;;;;8.00;2.72;;;2.10;99.90;;;;;;5049143;28;20532;-63
2021/04/12 01:35:21;;;;;;;8.38;3.47;;;2.10;99.90;;;;;;5131818;27;20197;-64
2021/04/12 01:37:53;;;;;;;7.38;2.85;;;2.00;99.90;;;;;;5129162;27;20290;-63
2021/04/12 01:40:27;;;;;;;6.75;2.45;;;2.00;99.90;;;;;;5132482;27;20671;-63
2021/04/12 01:43:09;;;;;;;8.27;3.50;;;2.00;99.90;;;;;;5132997;27;20280;-63
2021/04/12 01:45:44;;;;;;;11.85;3.35;;;1.90;99.90;;;;;;5132158;27;20219;-63
2021/04/12 01:48:45;;;;;;;8.88;3.75;;;1.90;99.90;;;;;;5132507;27;20297;-63
2021/04/12 01:51:47;;;;;;;7.10;3.13;;;1.90;99.90;;;;;;5089147;27;20208;-63
2021/04/12 01:54:55;;;;;;;9.60;3.10;;;2.00;99.90;;;;;;5123002;27;20276;-63
2021/04/12 01:57:45;;;;;;;7.57;3.40;;;1.90;99.90;;;;;;5116602;27;20226;-64
2021/04/12 02:00:46;;;;;;;6.85;3.20;;;1.90;99.90;;;;;;5128988;28;20206;-64
2021/04/12 02:03:48;;;;;;;8.13;4.18;;;1.90;99.90;;;;;;5133356;27;20613;-63
2021/04/12 02:06:42;;;;;;;6.97;3.20;;;1.90;99.90;;;;;;5117782;27;20194;-64
2021/04/12 02:09:44;;;;;;;6.38;3.10;;;1.90;99.90;;;;;;5132477;27;20313;-64
2021/04/12 02:12:19;;;;;;;8.48;3.28;;;1.90;99.90;;;;;;5132403;27;20202;-63
2021/04/12 02:15:02;;;;;;;7.47;3.40;;;2.00;99.90;;;;;;5132705;28;20201;-63
2021/04/12 02:17:43;;;;;;;7.90;4.18;;;2.10;99.90;;;;;;5132299;27;20305;-64
2021/04/12 02:20:21;;;;;;;5.75;3.25;;;2.10;99.90;;;;;;5132134;27;20611;-64
2021/04/12 02:23:30;;;;;;;11.85;4.25;;;2.00;99.90;;;;;;5132969;27;20567;-63
2021/04/12 02:26:12;;;;;;;8.50;3.75;;;1.90;99.90;;;;;;5131869;28;20194;-63
2021/04/12 02:28:53;;;;;;;6.80;3.58;;;1.90;99.90;;;;;;5132650;27;20313;-64
2021/04/12 02:31:34;;;;;;;7.32;3.17;;;1.90;99.90;;;;;;5127513;27;20194;-63
2021/04/12 02:34:08;;;;;;;12.45;4.90;;;1.90;99.90;;;;;;5132613;27;20301;-63
2021/04/12 02:36:46;;;;;;;6.70;3.30;;;2.00;99.90;;;;;;5131080;28;20199;-64
2021/04/12 02:39:29;;;;;;;8.25;3.80;;;1.90;99.90;;;;;;5127046;27;20474;-64
2021/04/12 02:42:12;;;;;;;8.95;3.97;;;1.80;99.90;;;;;;5132837;27;20206;-63
2021/04/12 02:44:49;;;;;;;8.40;3.97;;;1.90;99.90;;;;;;5131417;27;20290;-64
2021/04/12 02:47:38;;;;;;;7.53;3.30;;;1.80;99.90;;;;;;5127061;27;20738;-63
2021/04/12 02:50:20;;;;;;;10.13;4.25;;;1.80;99.90;;;;;;5135759;27;20550;-63
2021/04/12 02:53:01;;;;;;;8.70;3.97;;;1.80;99.90;;;;;;5135963;27;20671;-64
2021/04/12 02:55:54;;;;;;;10.70;4.38;;;1.80;99.90;;;;;;5115281;28;20295;-63
2021/04/12 02:58:56;;;;;;;8.07;4.25;;;1.80;99.90;;;;;;5115726;28;20254;-64
2021/04/12 03:01:40;;;;;;;8.50;4.47;;;1.80;99.90;;;;;;5126448;27;20283;-63
2021/04/12 03:04:18;;;;;;;11.95;4.35;;;1.80;99.90;;;;;;5135919;27;20210;-64
2021/04/12 03:07:21;;;;;;;10.02;4.80;;;1.80;99.90;;;;;;5135435;27;20665;-64
2021/04/12 03:10:16;;;;;;;10.07;4.72;;;1.70;99.90;;;;;;5135609;27;20230;-63
2021/04/12 03:13:14;;;;;;;9.05;4.50;;;1.70;99.90;;;;;;5136061;27;20205;-64
2021/04/12 03:15:57;;;;;;;9.93;4.15;;;1.70;99.90;;;;;;5135206;27;20285;-64
2021/04/12 03:19:06;;;;;;;11.57;4.25;;;1.70;99.90;;;;;;5135691;27;20399;-63
2021/04/12 03:22:04;;;;;;;7.47;4.35;;;1.60;99.90;;;;;;5114686;27;20542;-64
2021/04/12 03:24:39;;;;;;;9.75;4.90;;;1.60;99.90;;;;;;5136380;27;20638;-64
2021/04/12 03:27:38;;;;;;;13.75;5.57;;;1.60;99.90;;;;;;5134750;27;20288;-64
2021/04/12 03:30:25;;;;;;;9.45;4.47;;;1.60;99.90;;;;;;5135275;27;20201;-64
2021/04/12 03:33:00;;;;;;;13.65;5.82;;;1.60;99.90;;;;;;5135423;27;20628;-63
2021/04/12 03:35:49;;;;;;;12.52;5.40;;;1.60;99.90;;;;;;5134564;27;20565;-63
2021/04/12 03:38:31;;;;;;;13.20;6.05;;;1.60;99.90;;;;;;5117011;27;20263;-63
2021/04/12 03:41:19;;;;;;;9.77;5.47;;;1.60;99.90;;;;;;5135110;27;20198;-64
2021/04/12 03:44:02;;;;;;;10.80;5.28;;;1.60;99.90;;;;;;5135097;27;20883;-63
2021/04/12 03:46:49;;;;;;;10.80;6.35;;;1.50;99.90;;;;;;5134932;27;20291;-64
2021/04/12 03:49:42;;;;;;;9.63;5.75;;;1.50;99.90;;;;;;5134452;27;20270;-64
2021/04/12 03:52:37;;;;;;;10.63;5.20;;;1.50;99.90;;;;;;5133721;27;20205;-63
2021/04/12 03:55:20;;;;;;;6.50;1.52;;;1.80;99.90;;;;;;5134992;27;20293;-49
2021/04/12 03:58:06;;;;;;;6.60;3.30;;;5.30;99.90;;;;;;5134390;27;20191;-51
2021/04/12 04:00:57;;;;;;;9.33;3.57;;;7.30;99.90;;;;;;5134943;27;20424;-71
2021/04/12 04:04:01;;;;;;;7.87;4.23;;;7.60;99.90;;;;;;5134219;27;20530;-65
2021/04/12 04:07:06;;;;;;;8.83;4.13;;;6.30;99.90;;;;;;5085440;27;20455;-65
2021/04/12 04:09:50;;;;;;;9.53;4.17;;;5.30;99.90;;;;;;5133845;27;20472;-65
2021/04/12 04:12:43;;;;;;;8.67;3.93;;;4.60;99.90;;;;;;5134644;27;20532;-66
2021/04/12 04:15:26;;;;;;;11.00;4.33;;;4.10;99.90;;;;;;5134698;27;20454;-68
2021/04/12 04:18:17;;;;;;;7.80;4.10;;;3.60;99.90;;;;;;5133339;27;20504;-65
2021/04/12 04:21:07;;;;;;;9.37;4.80;;;3.10;99.90;;;;;;5124859;27;20535;-65
2021/04/12 04:24:09;;;;;;;7.40;4.10;;;2.80;99.90;;;;;;5131474;27;20580;-65
2021/04/12 04:27:09;;;;;;;7.70;4.50;;;2.40;99.90;;;;;;5119849;27;20472;-65
2021/04/12 04:30:17;;;;;;;9.90;5.73;;;2.20;99.90;;;;;;5126988;27;20488;-64
2021/04/12 04:33:03;;;;;;;9.73;5.25;;;2.00;99.90;;;;;;5103334;28;20946;-64
2021/04/12 04:35:48;;;;;;;8.00;4.67;;;1.90;99.90;;;;;;5126992;27;20199;-65
2021/04/12 04:38:48;;;;;;;9.52;5.43;;;1.80;99.90;;;;;;5134251;27;20524;-64
2021/04/12 04:41:29;;;;;;;10.98;5.43;;;1.60;99.90;;;;;;5134032;27;20209;-67
2021/04/12 04:44:05;;;;;;;11.30;6.03;;;1.50;99.90;;;;;;5134078;27;20277;-65
2021/04/12 04:46:50;;;;;;;19.85;6.50;;;1.40;99.90;;;;;;5133828;27;20566;-68
2021/04/12 04:49:41;;;;;;;11.18;5.90;;;1.30;99.90;;;;;;5129234;27;20228;-65
2021/04/12 04:52:46;;;;;;;13.07;6.63;;;1.30;99.90;;;;;;5133734;27;20220;-64
2021/04/12 04:55:31;;;;;;;12.65;7.15;;;1.10;99.90;;;;;;5134136;27;20284;-64
2021/04/12 04:58:12;;;;;;;12.35;7.25;;;1.20;99.90;;;;;;5133533;27;20209;-65
2021/04/12 05:00:57;;;;;;;11.68;6.45;;;1.10;99.90;;;;;;5132795;27;20204;-65
2021/04/12 05:04:01;;;;;;;10.13;5.93;;;1.10;99.90;;;;;;5126124;27;20205;-66
2021/04/12 05:07:09;;;;;;;11.77;6.78;;;1.10;99.90;;;;;;5132970;27;20198;-70
2021/04/12 05:10:05;;;;;;;11.85;5.68;;;1.00;99.90;;;;;;5113147;28;20230;-64
2021/04/12 05:13:07;;;;;;;12.05;6.93;;;1.00;99.90;;;;;;5115347;27;20263;-67
2021/04/12 05:16:12;;;;;;;16.38;7.40;;;1.00;99.90;;;;;;5111604;27;20288;-61
2021/04/12 05:19:14;;;;;;;12.65;6.57;;;1.00;99.90;;;;;;5129930;27;20623;-64
2021/04/12 05:22:08;;;;;;;15.77;7.80;;;1.00;99.90;;;;;;5092929;27;20210;-61
2021/04/12 05:24:57;;;;;;;14.48;6.65;;;1.00;99.90;;;;;;5132470;27;20281;-66
2021/04/12 05:27:53;;;;;;;12.30;6.32;;;1.00;99.90;;;;;;5130184;27;20204;-66
2021/04/12 05:30:49;;;;;;;11.73;7.35;;;1.10;99.90;;;;;;5130424;27;20197;-62
2021/04/12 05:33:34;;;;;;;11.07;7.00;;;1.30;99.90;;;;;;5130602;27;20292;-62
2021/04/12 05:36:16;;;;;;;14.95;8.10;;;1.40;99.90;;;;;;5129577;27;20291;-62
2021/04/12 05:39:07;;;;;;;18.67;8.05;;;1.60;99.90;;;;;;5131665;27;20198;-62
2021/04/12 05:42:12;;;;;;;19.35;9.50;;;1.70;99.90;;;;;;5131579;27;20209;-62
2021/04/12 05:45:23;;;;;;;21.30;10.23;;;1.90;99.90;;;;;;5130095;27;20198;-66
2021/04/12 05:48:38;;;;;;;18.63;11.85;;;2.10;99.90;;;;;;5130723;28;20240;-63
2021/04/12 05:51:21;;;;;;;18.15;10.57;;;2.40;99.90;;;;;;5120046;27;20293;-64
2021/04/12 05:54:15;;;;;;;20.40;9.10;;;2.50;99.90;;;;;;5134026;27;20226;-63
2021/04/12 05:57:14;;;;;;;21.42;9.48;;;2.70;99.90;;;;;;5128614;27;20222;-63
2021/04/12 05:59:53;;;;;;;15.77;8.02;;;2.80;99.90;;;;;;5133269;27;20349;-65
2021/04/12 06:02:34;;;;;;;13.48;7.53;;;3.00;99.90;;;;;;5135348;27;20280;-66
2021/04/12 06:05:08;;;;;;;15.15;8.82;;;3.20;99.90;;;;;;5132687;27;20238;-65
2021/04/12 06:07:55;;;;;;;13.80;7.87;;;3.40;99.90;;;;;;5130686;27;20203;-62
2021/04/12 06:11:01;;;;;;;15.33;6.90;;;3.70;99.90;;;;;;5132114;27;20421;-65
2021/04/12 06:13:54;;;;;;;16.13;8.07;;;3.70;99.90;;;;;;5129673;27;20422;-66
2021/04/12 06:16:53;;;;;;;15.03;8.43;;;3.90;99.90;;;;;;5134881;27;20942;-65
2021/04/12 06:19:45;;;;;;;13.67;8.10;;;3.90;99.90;;;;;;5136598;27;20858;-65
2021/04/12 06:22:42;;;;;;;14.40;8.00;;;4.20;99.90;;;;;;5129872;27;20461;-65
2021/04/12 06:25:52;;;;;;;19.20;8.23;;;4.40;99.90;;;;;;5134411;27;20452;-64
2021/04/12 06:28:44;;;;;;;13.77;7.73;;;4.50;99.90;;;;;;5140132;27;20484;-66
2021/04/12 06:31:42;;;;;;;15.20;8.10;;;4.80;99.90;;;;;;5135809;27;20510;-62
2021/04/12 06:34:38;;;;;;;17.57;6.50;;;4.90;99.90;;;;;;5136131;27;20825;-65
2021/04/12 06:37:18;;;;;;;12.23;6.63;;;4.90;99.90;;;;;;5137016;27;20449;-62
2021/04/12 06:40:01;;;;;;;13.13;8.23;;;5.00;99.90;;;;;;5140160;27;20547;-64
2021/04/12 06:43:07;;;;;;;16.20;7.57;;;5.10;99.90;;;;;;5124184;27;20523;-63
2021/04/12 06:46:10;;;;;;;18.50;8.77;;;5.10;99.90;;;;;;5147523;27;20481;-64
2021/04/12 06:49:02;;;;;;;15.03;6.80;;;5.10;99.90;;;;;;5123684;27;20523;-64
2021/04/12 06:52:15;;;;;;;16.47;7.40;;;5.50;99.90;;;;;;5136158;27;20442;-61
2021/04/12 06:54:49;;;;;;;14.03;7.90;;;5.60;99.90;;;;;;5121690;27;20516;-63
2021/04/12 06:57:56;;;;;;;14.53;8.17;;;5.40;99.90;;;;;;5145514;27;20470;-67
2021/04/12 07:01:01;;;;;;;13.13;7.10;;;5.60;99.90;;;;;;5119364;27;20506;-65
2021/04/12 07:04:03;;;;;;;15.33;8.70;;;5.90;99.90;;;;;;5129854;27;20480;-63
2021/04/12 07:06:42;;;;;;;13.00;7.07;;;5.90;99.90;;;;;;5133390;27;20539;-61
2021/04/12 07:09:40;;;;;;;12.50;6.50;;;5.80;99.90;;;;;;5130777;27;20476;-65
2021/04/12 07:12:48;;;;;;;18.07;7.93;;;5.60;99.90;;;;;;5128322;27;20935;-66
2021/04/12 07:16:09;;;;;;;15.73;7.47;;;5.50;99.90;;;;;;5134830;27;20437;-66
2021/04/12 07:19:20;;;;;;;21.02;9.00;;;5.60;99.90;;;;;;5137694;27;20974;-66
2021/04/12 07:22:16;;;;;;;13.97;7.30;;;5.70;99.90;;;;;;5133018;27;20290;-64
2021/04/12 07:25:15;;;;;;;16.37;7.30;;;5.80;99.90;;;;;;5129985;27;20537;-68
2021/04/12 07:28:27;;;;;;;15.83;6.77;;;5.70;99.90;;;;;;5130134;27;20465;-64
2021/04/12 07:31:29;;;;;;;16.80;8.17;;;5.70;99.90;;;;;;5132871;27;20495;-65
2021/04/12 07:34:06;;;;;;;14.80;7.70;;;5.90;99.90;;;;;;5131039;27;20443;-61
2021/04/12 07:37:07;;;;;;;12.43;6.93;;;5.90;99.90;;;;;;5129929;27;20499;-62
2021/04/12 07:40:21;;;;;;;18.50;8.00;;;5.90;99.90;;;;;;5130005;27;20868;-65
2021/04/12 07:43:25;;;;;;;17.50;8.13;;;6.10;99.90;;;;;;5131741;27;20805;-66
2021/04/12 07:46:29;;;;;;;15.43;8.63;;;6.20;99.90;;;;;;5141977;27;20553;-63
2021/04/12 07:49:36;;;;;;;15.70;9.60;;;6.20;99.90;;;;;;5129046;27;20482;-68
2021/04/12 07:52:45;;;;;;;15.00;7.93;;;6.40;99.90;;;;;;5135713;27;20981;-65
2021/04/12 07:55:40;;;;;;;14.13;8.33;;;6.40;99.90;;;;;;5141013;27;20459;-62
2021/04/12 07:58:43;;;;;;;19.03;10.60;;;6.60;99.90;;;;;;5133177;27;20544;-63
2021/04/12 08:01:53;;;;;;;20.50;8.70;;;7.00;99.90;;;;;;5130878;27;20826;-63
2021/04/12 08:05:07;;;;;;;11.57;7.80;;;7.20;99.90;;;;;;5122474;27;20447;-65
2021/04/12 08:08:13;;;;;;;18.20;9.10;;;7.60;99.90;;;;;;5122102;27;20459;-65
2021/04/12 08:11:11;;;;;;;14.33;7.97;;;7.50;99.90;;;;;;5128415;27;20484;-68
2021/04/12 08:14:40;;;;;;;15.73;6.60;;;7.70;99.90;;;;;;5135644;27;20535;-65
2021/04/12 08:17:38;;;;;;;15.33;7.17;;;8.50;99.90;;;;;;5138215;27;20850;-64
2021/04/12 08:20:47;;;;;;;19.03;8.37;;;8.60;99.90;;;;;;5132701;27;20440;-67
2021/04/12 08:23:53;;;;;;;17.80;7.00;;;8.90;99.90;;;;;;5131668;27;20975;-65
2021/04/12 08:27:07;;;;;;;13.87;7.43;;;9.00;99.90;;;;;;5105089;27;20746;-63
2021/04/12 08:30:10;;;;;;;13.83;6.33;;;9.00;99.90;;;;;;5080929;27;20546;-64
2021/04/12 08:33:12;;;;;;;13.13;6.90;;;9.10;99.90;;;;;;5131618;27;20515;-63
2021/04/12 08:36:33;;;;;;;14.43;7.50;;;9.20;99.90;;;;;;5121385;27;20539;-64
2021/04/12 08:39:53;;;;;;;17.10;7.70;;;9.40;99.90;;;;;;5126364;27;20894;-65
2021/04/12 08:42:50;;;;;;;16.37;7.17;;;9.50;99.90;;;;;;5130378;27;20539;-65
2021/04/12 08:45:40;;;;;;;15.23;7.23;;;8.90;99.90;;;;;;5128413;27;20458;-64
2021/04/12 08:48:20;;;;;;;12.27;6.70;;;9.00;99.90;;;;;;5129763;27;20922;-62
2021/04/12 08:51:13;;;;;;;15.23;7.53;;;9.30;99.90;;;;;;5130076;27;20453;-66
2021/04/12 08:54:21;;;;;;;14.10;6.87;;;8.90;99.90;;;;;;5125135;27;20965;-65
2021/04/12 08:57:27;;;;;;;14.70;5.77;;;9.00;99.90;;;;;;5129130;27;20466;-64
2021/04/12 09:00:39;;;;;;;11.17;4.30;;;9.70;99.90;;;;;;5129762;27;20436;-66
2021/04/12 09:03:52;;;;;;;9.77;4.10;;;9.80;99.90;;;;;;5127317;27;20528;-63
2021/04/12 09:07:08;;;;;;;11.73;5.13;;;10.00;99.90;;;;;;5124142;27;20969;-63
2021/04/12 09:10:15;;;;;;;10.50;4.77;;;10.00;99.90;;;;;;5131656;27;20575;-66
2021/04/12 09:13:14;;;;;;;15.60;5.67;;;10.50;99.90;;;;;;5129242;27;20810;-66
2021/04/12 09:16:06;;;;;;;21.30;5.37;;;10.70;99.90;;;;;;5118343;27;20824;-67
2021/04/12 09:19:16;;;;;;;12.03;4.70;;;10.70;99.90;;;;;;5126214;27;21015;-66
2021/04/12 09:21:56;;;;;;;8.73;4.50;;;12.90;99.90;;;;;;5129362;27;20456;-67
2021/04/12 09:24:56;;;;;;;8.40;4.80;;;15.20;99.90;;;;;;5130196;27;20443;-66
2021/04/12 09:27:50;;;;;;;9.30;5.30;;;16.70;99.90;;;;;;5109890;28;20449;-67
2021/04/12 09:30:50;;;;;;;6.13;3.63;;;19.00;99.90;;;;;;5126895;27;20540;-65
2021/04/12 09:34:05;;;;;;;12.77;4.33;;;19.40;96.70;;;;;;5126233;27;21390;-67
2021/04/12 09:37:06;;;;;;;8.73;3.63;;;18.40;93.10;;;;;;5130115;27;20531;-64
2021/04/12 09:40:01;;;;;;;8.83;3.87;;;17.30;93.60;;;;;;5127770;27;20488;-68
2021/04/12 09:43:06;;;;;;;9.00;3.50;;;16.90;93.00;;;;;;5122271;27;20555;-64
2021/04/12 09:46:06;;;;;;;8.57;3.47;;;16.90;91.70;;;;;;5050486;28;20462;-65
2021/04/12 09:49:07;;;;;;;5.67;2.77;;;16.50;86.90;;;;;;5121228;27;20476;-65
2021/04/12 09:51:45;;;;;;;8.57;3.87;;;15.00;87.70;;;;;;5137619;27;20892;-64
2021/04/12 09:54:41;;;;;;;7.87;4.10;;;13.60;91.70;;;;;;5134182;27;20468;-66
2021/04/12 09:57:57;;;;;;;7.67;4.20;;;12.50;95.60;;;;;;5127405;27;20446;-64
2021/04/12 10:00:43;;;;;;;10.17;4.60;;;11.40;99.00;;;;;;5127826;27;20440;-64
2021/04/12 10:03:31;;;;;;;8.40;4.93;;;10.60;99.90;;;;;;5128474;27;20531;-65
2021/04/12 10:06:25;;;;;;;8.18;3.60;;;10.20;99.90;;;;;;5127403;27;20434;-51
2021/04/12 10:09:18;;;;;;;6.63;3.10;;;11.60;99.90;;;;;;5125362;27;20220;-66
2021/04/12 10:11:49;;;;;;;10.57;3.43;;;12.60;99.90;;;;;;5128302;27;20458;-64
2021/04/12 10:14:18;;;;;;;8.07;3.80;;;12.20;99.90;;;;;;5125779;27;20540;-65
2021/04/12 10:16:51;;;;;;;8.40;5.33;;;11.60;99.90;;;;;;5126605;27;20600;-64
2021/04/12 10:19:21;;;;;;;6.70;4.50;;;11.40;99.90;;;;;;5124916;27;20455;-64
2021/04/12 10:21:55;;;;;;;10.27;6.90;;;10.90;99.90;;;;;;5125766;28;20491;-63
2021/04/12 10:24:27;;;;;;;9.63;5.23;;;10.50;99.90;;;;;;5127068;28;20467;-62
2021/04/12 10:26:58;;;;;;;9.00;5.70;;;10.20;99.90;;;;;;5127011;27;20444;-62
2021/04/12 10:29:34;;;;;;;11.00;5.80;;;9.70;99.90;;;;;;5129443;27;20488;-66
2021/04/12 10:32:10;;;;;;;6.27;3.33;;;9.10;99.90;;;;;;5115200;28;20532;-65
2021/04/12 10:34:43;;;;;;;6.93;3.40;;;8.70;99.90;;;;;;5130669;27;20440;-67
2021/04/12 10:37:33;;;;;;;5.60;2.17;;;9.20;99.90;;;;;;5130070;27;20487;-64
2021/04/12 10:40:09;;;;;;;5.63;1.43;;;9.90;99.90;;;;;;5124511;28;20523;-68
2021/04/12 10:42:48;;;;;;;4.87;1.40;;;12.20;99.90;;;;;;5124133;27;20440;-63
2021/04/12 10:45:19;;;;;;;4.93;1.40;;;15.20;99.90;;;;;;5124806;27;20448;-69
2021/04/12 10:47:57;;;;;;;5.20;2.20;;;18.50;94.60;;;;;;5127344;27;20535;-64
2021/04/12 10:50:33;;;;;;;4.40;1.40;;;20.60;88.80;;;;;;5114980;28;20440;-64
2021/04/12 10:53:31;;;;;;;5.30;1.40;;;20.40;74.00;;;;;;5122679;28;20932;-65
2021/04/12 10:56:04;;;;;;;5.20;1.57;;;22.00;63.90;;;;;;5127030;28;20532;-65
2021/04/12 10:58:59;;;;;;;4.33;1.40;;;22.50;71.60;;;;;;5129757;27;20448;-65
2021/04/12 11:01:37;;;;;;;5.13;1.80;;;24.50;58.00;;;;;;5118303;27;20463;-66
2021/04/12 11:04:18;;;;;;;7.00;2.13;;;25.10;57.20;;;;;;5133651;27;20444;-66
2021/04/12 11:07:01;;;;;;;6.70;2.17;;;24.20;54.50;;;;;;5134695;27;20641;-65
2021/04/12 11:09:37;;;;;;;5.57;2.30;;;23.70;51.30;;;;;;5127105;27;20507;-67
2021/04/12 11:12:14;;;;;;;5.80;1.90;;;24.20;48.60;;;;;;5125990;27;20532;-67
2021/04/12 11:14:51;;;;;;;5.97;2.33;;;23.00;50.10;;;;;;5133777;27;20471;-65
2021/04/12 11:17:33;;;;;;;7.87;2.27;;;22.20;52.30;;;;;;5126931;27;20451;-66
2021/04/12 11:20:11;;;;;;;4.67;1.70;;;19.70;50.80;;;;;;5125413;27;20983;-64
2021/04/12 11:22:57;;;;;;;4.83;1.57;;;18.10;55.90;;;;;;5131343;27;21138;-71
2021/04/12 11:25:34;;;;;;;4.20;1.20;;;19.90;60.60;;;;;;5126030;27;20547;-61
2021/04/12 11:28:19;;;;;;;6.00;1.80;;;22.60;55.50;;;;;;5129796;27;21204;-64
2021/04/12 11:30:59;;;;;;;3.80;1.20;;;23.90;55.40;;;;;;5132444;27;20480;-61
2021/04/12 11:33:47;;;;;;;4.13;1.30;;;24.60;54.40;;;;;;5125812;27;20555;-63
2021/04/12 11:36:37;;;;;;;4.37;1.30;;;24.20;53.90;;;;;;5125840;27;20448;-66
2021/04/12 11:39:12;;;;;;;5.17;1.33;;;23.90;52.00;;;;;;5123236;27;20459;-65
2021/04/12 11:41:50;;;;;;;3.80;0.97;;;23.00;49.70;;;;;;5125716;27;20980;-63
2021/04/12 11:44:19;;;;;;;3.50;0.87;;;20.10;50.00;;;;;;5126519;27;20442;-64
2021/04/12 11:47:12;;;;;;;4.80;1.17;;;18.70;53.50;;;;;;5126914;27;20543;-64
2021/04/12 11:49:50;;;;;;;4.17;1.33;;;17.00;55.90;;;;;;5123472;27;20563;-65
2021/04/12 11:52:21;;;;;;;5.30;1.20;;;14.70;58.60;;;;;;5127159;27;20992;-63
2021/04/12 11:54:58;;;;;;;4.00;1.10;;;14.20;62.20;;;;;;5128969;27;20593;-67
2021/04/12 11:57:41;;;;;;;3.60;1.07;;;12.80;67.80;;;;;;5131892;27;20810;-62
2021/04/12 12:00:12;;;;;;;3.97;1.40;;;11.70;70.60;;;;;;5132160;27;20437;-63
2021/04/12 12:02:50;;;;;;;5.10;1.30;;;10.90;75.40;;;;;;5127236;27;20552;-67
2021/04/12 12:05:25;;;;;;;7.90;2.57;;;10.20;88.60;;;;;;5129743;27;20447;-62
2021/04/12 12:07:55;;;;;;;7.97;2.63;;;9.50;99.90;;;;;;5132021;27;20452;-61
2021/04/12 12:10:32;;;;;;;12.93;4.90;;;9.50;99.90;;;;;;5135892;27;20516;-64
2021/04/12 12:13:03;;;;;;;7.13;2.13;;;9.50;99.90;;;;;;5127554;27;20543;-65
2021/04/12 12:15:38;;;;;;;6.80;1.87;;;9.20;99.90;;;;;;5130468;27;20472;-61
2021/04/12 12:18:07;;;;;;;5.40;1.40;;;9.40;99.90;;;;;;5132767;27;20456;-65
2021/04/12 12:20:47;;;;;;;4.80;1.40;;;9.80;99.90;;;;;;5126491;27;20454;-62
2021/04/12 12:23:35;;;;;;;5.13;1.50;;;10.00;99.90;;;;;;5130097;27;20529;-62
2021/04/12 12:26:07;;;;;;;7.50;1.50;;;10.60;99.90;;;;;;5093539;27;20587;-68
2021/04/12 12:28:42;;;;;;;4.33;1.30;;;12.60;99.90;;;;;;5135350;27;21039;-65
2021/04/12 12:34:10;;;;;;;5.87;1.13;;;18.30;93.10;;;;;;5126397;27;20459;-48
2021/04/12 12:36:43;;;;;;;4.87;1.20;;;21.30;99.90;;;;;;5133951;27;20535;-51
2021/04/12 12:39:16;;;;;;;4.67;1.37;;;22.50;84.20;;;;;;5134680;27;20461;-55
2021/04/12 12:41:45;;;;;;;4.57;1.20;;;24.80;67.70;;;;;;5130327;27;21009;-51
2021/04/12 12:44:17;;;;;;;4.63;1.10;;;25.80;59.50;;;;;;5135623;27;20630;-54
2021/04/12 12:46:45;;;;;;;4.23;1.20;;;25.60;55.40;;;;;;5140251;27;20483;-52
2021/04/12 12:49:18;;;;;;;5.25;1.25;;;25.30;53.60;;;;;;5131049;27;20475;-65
2021/04/12 12:51:50;;;;;;;5.43;1.40;;;25.00;49.10;;;;;;5142009;27;20198;-67
2021/04/12 12:54:25;;;;;;;4.93;1.60;;;23.00;48.80;;;;;;5132419;27;20531;-64
2021/04/12 12:57:04;;;;;;;4.67;1.53;;;21.90;51.50;;;;;;5127361;27;20877;-65
2021/04/12 12:59:37;;;;;;;7.85;6.63;;;23.20;53.10;;;;;;5131952;27;20517;-64
2021/04/12 13:02:19;;;;;;;4.93;1.20;;;23.90;48.60;;;;;;5129344;27;20660;-65
2021/04/12 13:04:55;;;;;;;6.37;1.20;;;25.50;48.30;;;;;;5132738;27;20504;-65
2021/04/12 13:07:22;;;;;;;4.90;1.20;;;25.80;48.00;;;;;;5131104;27;20434;-63
2021/04/12 13:09:57;;;;;;;7.60;1.80;;;26.90;48.90;;;;;;5129088;27;20755;-64
2021/04/12 13:12:31;;;;;;;5.40;1.50;;;26.70;45.90;;;;;;5125555;27;20852;-61
2021/04/12 13:15:13;;;;;;;4.20;1.10;;;26.10;45.40;;;;;;5131917;27;20536;-67
2021/04/12 13:17:41;;;;;;;3.97;1.17;;;27.50;47.30;;;;;;5131640;27;21008;-60
2021/04/12 13:20:12;;;;;;;4.20;1.20;;;25.90;47.20;;;;;;5131936;27;20535;-69
2021/04/12 13:22:43;;;;;;;4.03;1.13;;;26.60;46.50;;;;;;5131474;27;20451;-67
2021/04/12 13:25:18;;;;;;;4.60;1.70;;;25.60;45.20;;;;;;5122899;27;20444;-69
2021/04/12 13:27:48;;;;;;;4.30;1.40;;;26.10;46.10;;;;;;5127124;27;20938;-68
2021/04/12 13:30:22;;;;;;;4.87;1.50;;;27.50;45.70;;;;;;5130365;27;20588;-69
2021/04/12 13:32:53;;;;;;;5.33;1.60;;;28.50;44.80;;;;;;5130859;27;20532;-69
2021/04/12 13:35:22;;;;;;;6.00;1.60;;;27.00;43.10;;;;;;5130949;27;20448;-69
2021/04/12 13:38:01;;;;;;;3.90;1.27;;;25.80;45.40;;;;;;5130580;27;20445;-66
2021/04/12 13:40:32;;;;;;;5.20;1.60;;;27.10;45.80;;;;;;5130339;27;20470;-66
2021/04/12 13:43:02;;;;;;;5.03;1.60;;;26.20;42.10;;;;;;5115432;27;20440;-65
2021/04/12 13:45:32;;;;;;;5.10;1.40;;;27.60;42.80;;;;;;5122883;27;20455;-70
2021/04/12 13:48:05;;;;;;;4.00;1.40;;;27.90;44.10;;;;;;5121075;27;20444;-67
2021/04/12 13:50:33;;;;;;;5.83;1.53;;;26.20;40.40;;;;;;5128280;28;20453;-65
2021/04/12 13:53:08;;;;;;;4.40;1.60;;;23.90;40.70;;;;;;5126610;27;20866;-63
2021/04/12 13:55:40;;;;;;;5.17;1.70;;;22.00;42.50;;;;;;5129191;27;20448;-67
2021/04/12 13:58:10;;;;;;;5.23;1.50;;;20.60;44.40;;;;;;5129610;27;20512;-65
2021/04/12 14:00:42;;;;;;;5.30;1.83;;;19.30;44.40;;;;;;5131277;28;20433;-63
2021/04/12 14:03:25;;;;;;;7.33;2.70;;;17.60;45.30;;;;;;5131571;27;20454;-65
2021/04/12 14:05:59;;;;;;;8.13;3.00;;;16.40;47.70;;;;;;5130928;27;20928;-61
2021/04/12 14:08:27;;;;;;;10.00;2.70;;;14.50;51.70;;;;;;5127606;27;20486;-64
2021/04/12 14:10:58;;;;;;;5.57;2.37;;;12.90;56.40;;;;;;5129355;27;20865;-64
2021/04/12 14:13:29;;;;;;;4.90;2.63;;;11.80;59.50;;;;;;5130568;27;20452;-67
2021/04/12 14:16:04;;;;;;;4.60;2.00;;;10.70;66.40;;;;;;5129954;27;20589;-67
2021/04/12 14:18:36;;;;;;;6.97;3.00;;;10.10;78.90;;;;;;5128784;27;20991;-68
2021/04/12 14:21:07;;;;;;;5.60;2.90;;;9.60;95.50;;;;;;5131654;27;20449;-67
2021/04/12 14:23:38;;;;;;;6.40;2.60;;;9.20;99.90;;;;;;5131834;27;20449;-69
2021/04/12 14:26:09;;;;;;;6.20;3.43;;;8.40;99.90;;;;;;5131493;27;20950;-67
2021/04/12 14:28:43;;;;;;;7.67;4.17;;;8.00;99.90;;;;;;5134101;27;20452;-68
2021/04/12 14:31:19;;;;;;;5.73;2.93;;;8.00;99.90;;;;;;5143178;27;20523;-66
2021/04/12 14:33:47;;;;;;;5.13;3.00;;;9.10;99.90;;;;;;5134430;27;20546;-67
2021/04/12 14:36:20;;;;;;;5.63;2.23;;;11.50;99.90;;;;;;5131842;27;20448;-68
2021/04/12 14:38:49;;;;;;;7.50;2.40;;;14.10;99.90;;;;;;5133752;27;20563;-71